createdAt,value
2022-12-05T00:01:23.012Z,-0.40
2022-12-05T00:03:52.127Z,-0.50
2022-12-05T00:06:20.064Z,-0.40
2022-12-05T00:08:47.492Z,-0.40
2022-12-05T00:11:19.965Z,-0.40
2022-12-05T00:13:48.000Z,-0.40
2022-12-05T00:16:18.410Z,-0.40
2022-12-05T00:18:45.859Z,-0.40
2022-12-05T00:21:16.749Z,-0.40
2022-12-05T00:23:43.696Z,-0.40
2022-12-05T00:26:10.902Z,-0.40
2022-12-05T00:28:38.703Z,-0.50
2022-12-05T00:31:08.777Z,-0.50
2022-12-05T00:33:35.879Z,-0.50
2022-12-05T00:36:12.199Z,-0.40
2022-12-05T00:38:39.176Z,-0.40
2022-12-05T00:41:09.035Z,-0.50
2022-12-05T00:43:36.843Z,-0.50
2022-12-05T00:46:08.777Z,-0.50
2022-12-05T00:48:36.331Z,-0.50
2022-12-05T00:51:13.227Z,-0.50
2022-12-05T00:53:40.770Z,-0.60
2022-12-05T00:56:13.159Z,-0.60
2022-12-05T00:58:40.762Z,-0.60
2022-12-05T01:01:12.606Z,-0.60
2022-12-05T01:03:40.354Z,-0.60
2022-12-05T01:06:07.916Z,-0.60
2022-12-05T01:08:35.779Z,-0.60
2022-12-05T01:11:04.729Z,-0.70
2022-12-05T01:13:32.395Z,-0.70
2022-12-05T01:15:59.700Z,-0.80
2022-12-05T01:18:28.147Z,-0.80
2022-12-05T01:20:55.435Z,-0.80
2022-12-05T01:23:22.719Z,-0.80
2022-12-05T01:25:51.735Z,-0.80
2022-12-05T01:28:19.062Z,-0.80
2022-12-05T01:30:48.187Z,-0.80
2022-12-05T01:33:15.624Z,-0.80
2022-12-05T01:35:42.879Z,-0.80
2022-12-05T01:38:12.517Z,-0.70
2022-12-05T01:40:40.380Z,-0.70
2022-12-05T01:43:15.836Z,-0.70
2022-12-05T01:45:45.897Z,-0.70
2022-12-05T01:48:20.888Z,-0.80
2022-12-05T01:50:50.099Z,-0.80
2022-12-05T01:53:17.880Z,-0.80
2022-12-05T01:55:46.258Z,-0.70
2022-12-05T01:58:13.480Z,-0.80
2022-12-05T02:00:40.466Z,-0.80
2022-12-05T02:03:10.845Z,-0.80
2022-12-05T02:05:41.295Z,-0.80
2022-12-05T02:08:10.307Z,-0.80
2022-12-05T02:10:50.178Z,-0.80
2022-12-05T02:13:27.031Z,-0.80
2022-12-05T02:16:15.414Z,-0.80
2022-12-05T02:18:57.543Z,-0.80
2022-12-05T02:21:41.551Z,-0.80
2022-12-05T02:24:29.415Z,-0.80
2022-12-05T02:27:00.788Z,-0.80
2022-12-05T02:29:41.320Z,-0.80
2022-12-05T02:32:26.697Z,-0.80
2022-12-05T02:34:59.678Z,-0.80
2022-12-05T02:37:59.787Z,-0.80
2022-12-05T02:40:46.657Z,-0.80
2022-12-05T02:43:25.839Z,-0.80
2022-12-05T02:45:58.614Z,-0.80
2022-12-05T02:48:29.083Z,-0.80
2022-12-05T02:51:00.375Z,-0.70
2022-12-05T02:53:29.003Z,-0.70
2022-12-05T02:55:56.979Z,-0.80
2022-12-05T02:58:38.725Z,-0.70
2022-12-05T03:01:05.998Z,-0.80
2022-12-05T03:03:33.933Z,-0.80
2022-12-05T03:06:07.059Z,-0.80
2022-12-05T03:08:41.237Z,-0.80
2022-12-05T03:11:08.405Z,-0.80
2022-12-05T03:13:45.915Z,-0.80
2022-12-05T03:16:22.147Z,-0.80
2022-12-05T03:19:21.777Z,-0.80
2022-12-05T03:22:16.575Z,-0.80
2022-12-05T03:24:43.784Z,-0.90
2022-12-05T03:27:27.852Z,-0.90
2022-12-05T03:30:02.141Z,-0.90
2022-12-05T03:33:02.278Z,-0.90
2022-12-05T03:35:44.999Z,-0.90
2022-12-05T03:38:24.679Z,-0.90
2022-12-05T03:41:21.097Z,-0.90
2022-12-05T03:43:58.071Z,-0.90
2022-12-05T03:46:32.439Z,-0.90
2022-12-05T03:49:07.609Z,-1.00
2022-12-05T03:51:47.481Z,-1.00
2022-12-05T03:54:37.724Z,-1.00
2022-12-05T03:57:15.335Z,-1.00
2022-12-05T03:59:55.268Z,-1.00
2022-12-05T04:02:34.729Z,-1.00
2022-12-05T04:05:08.570Z,-1.00
2022-12-05T04:07:39.175Z,-1.00
2022-12-05T04:10:12.707Z,-1.00
2022-12-05T04:12:41.827Z,-1.00
2022-12-05T04:15:14.549Z,-1.00
2022-12-05T04:17:56.931Z,-1.00
2022-12-05T04:20:45.959Z,-1.00
2022-12-05T04:23:13.117Z,-1.00
2022-12-05T04:26:06.893Z,-1.00
2022-12-05T04:29:10.423Z,-1.10
2022-12-05T04:31:44.147Z,-1.10
2022-12-05T04:34:15.099Z,-1.10
2022-12-05T04:37:00.640Z,-1.10
2022-12-05T04:39:36.994Z,-1.00
2022-12-05T04:42:10.785Z,-1.00
2022-12-05T04:44:44.301Z,-1.00
2022-12-05T04:47:15.531Z,-1.00
2022-12-05T04:49:48.049Z,-1.00
2022-12-05T04:52:19.449Z,-1.00
2022-12-05T04:54:49.118Z,-1.00
2022-12-05T04:57:19.184Z,-1.00
2022-12-05T04:59:46.871Z,-1.00
2022-12-05T05:02:18.850Z,-1.00
2022-12-05T05:04:52.646Z,-1.00
2022-12-05T05:07:20.551Z,-1.00
2022-12-05T05:09:47.487Z,-1.00
2022-12-05T05:12:18.902Z,-1.00
2022-12-05T05:14:46.387Z,-1.00
2022-12-05T05:17:13.311Z,-1.00
2022-12-05T05:19:40.261Z,-1.00
2022-12-05T05:22:07.185Z,-1.00
2022-12-05T05:24:34.068Z,-1.10
2022-12-05T05:27:00.999Z,-1.10
2022-12-05T05:29:27.922Z,-1.10
2022-12-05T05:31:54.924Z,-1.10
2022-12-05T05:34:21.810Z,-1.10
2022-12-05T05:36:52.982Z,-1.10
2022-12-05T05:39:20.227Z,-1.10
2022-12-05T05:44:26.128Z,-1.10
2022-12-05T05:46:53.250Z,-1.10
2022-12-05T05:49:20.222Z,-1.10
2022-12-05T05:51:47.138Z,-1.10
2022-12-05T05:54:14.048Z,-1.10
2022-12-05T05:56:40.969Z,-1.10
2022-12-05T05:59:07.871Z,-1.10
2022-12-05T06:01:34.760Z,-1.10
2022-12-05T06:04:01.840Z,-1.10
2022-12-05T06:06:28.877Z,-1.10
2022-12-05T06:08:56.072Z,-1.10
2022-12-05T06:11:26.749Z,-1.10
2022-12-05T06:13:58.689Z,-1.10
2022-12-05T06:16:25.735Z,-1.10
2022-12-05T06:18:53.543Z,-1.10
2022-12-05T06:21:21.993Z,-1.10
2022-12-05T06:23:50.258Z,-1.10
2022-12-05T06:26:20.127Z,-1.10
2022-12-05T06:28:47.442Z,-1.10
2022-12-05T06:31:20.007Z,-1.10
2022-12-05T06:33:47.708Z,-1.10
2022-12-05T06:36:17.716Z,-1.10
2022-12-05T06:38:44.976Z,-1.10
2022-12-05T06:41:15.233Z,-1.10
2022-12-05T06:43:42.788Z,-1.10
2022-12-05T06:46:11.961Z,-1.10
2022-12-05T06:48:39.773Z,-1.10
2022-12-05T06:51:10.642Z,-1.10
2022-12-05T06:53:37.897Z,-1.20
2022-12-05T06:56:08.220Z,-1.10
2022-12-05T06:58:35.194Z,-1.10
2022-12-05T07:01:20.503Z,-1.10
2022-12-05T07:03:49.561Z,-1.10
2022-12-05T07:06:17.360Z,-1.10
2022-12-05T07:08:45.022Z,-1.10
2022-12-05T07:11:12.299Z,-1.10
2022-12-05T07:13:39.421Z,-1.10
2022-12-05T07:16:07.459Z,-1.10
2022-12-05T07:18:35.565Z,-1.10
2022-12-05T07:21:12.506Z,-1.10
2022-12-05T07:23:41.775Z,-1.10
2022-12-05T07:26:10.522Z,-1.10
2022-12-05T07:28:37.426Z,-1.10
2022-12-05T07:31:06.812Z,-1.10
2022-12-05T07:33:34.041Z,-1.10
2022-12-05T07:36:08.267Z,-1.10
2022-12-05T07:38:35.347Z,-1.10
2022-12-05T07:41:13.522Z,-1.00
2022-12-05T07:43:41.792Z,-1.00
2022-12-05T07:46:11.544Z,-1.00
2022-12-05T07:48:39.530Z,-1.00
2022-12-05T07:51:07.931Z,-1.00
2022-12-05T07:53:35.242Z,-1.10
2022-12-05T07:56:04.885Z,-1.00
2022-12-05T07:58:33.293Z,-1.00
2022-12-05T08:01:17.981Z,-1.00
2022-12-05T08:03:45.504Z,-1.00
2022-12-05T10:07:58.980Z,-1.10
2022-12-05T10:10:57.499Z,-1.10
2022-12-05T10:13:53.755Z,-1.20
2022-12-05T10:16:49.143Z,-1.20
2022-12-05T10:19:42.136Z,-1.30
2022-12-05T10:25:06.876Z,-1.30
2022-12-05T10:27:40.252Z,-1.30
2022-12-05T10:30:18.900Z,-1.20
2022-12-05T10:32:59.448Z,-1.20
2022-12-05T10:35:33.089Z,-1.20
2022-12-05T10:38:28.529Z,-1.30
2022-12-05T10:41:00.771Z,-1.30
2022-12-05T10:43:30.245Z,-1.30
2022-12-05T10:45:58.059Z,-1.20
2022-12-05T10:48:25.723Z,-1.20
2022-12-05T10:50:57.864Z,-1.20
2022-12-05T10:53:41.934Z,-1.20
2022-12-05T10:56:36.910Z,-1.20
2022-12-05T10:59:04.411Z,-1.20
2022-12-05T11:01:31.935Z,-1.30
2022-12-05T11:04:01.623Z,-1.30
2022-12-05T11:06:32.524Z,-1.20
2022-12-05T11:09:09.908Z,-1.20
2022-12-05T11:11:37.138Z,-1.30
2022-12-05T11:14:21.566Z,-1.30
2022-12-05T11:16:57.639Z,-1.40
2022-12-05T11:19:27.597Z,-1.50
2022-12-05T11:21:55.202Z,-1.50
2022-12-05T11:24:29.558Z,-1.50
2022-12-05T11:27:21.771Z,-1.50
2022-12-05T11:30:24.133Z,-1.60
2022-12-05T11:32:51.658Z,-1.50
2022-12-05T11:35:26.309Z,-1.60
2022-12-05T11:37:53.270Z,-1.60
2022-12-05T11:40:43.019Z,-1.60
2022-12-05T11:43:28.462Z,-1.60
2022-12-05T11:46:04.367Z,-1.70
2022-12-05T11:48:49.759Z,-1.70
2022-12-05T11:51:31.395Z,-1.70
2022-12-05T11:54:13.713Z,-1.80
2022-12-05T11:57:13.906Z,-1.80
2022-12-05T12:00:14.146Z,-1.90
2022-12-05T12:03:04.165Z,-1.90
2022-12-05T12:05:44.930Z,-1.90
2022-12-05T12:08:34.351Z,-1.90
2022-12-05T12:11:16.695Z,-2.00
2022-12-05T12:13:58.753Z,-2.00
2022-12-05T12:16:41.060Z,-2.10
2022-12-05T12:19:38.448Z,-2.10
2022-12-05T12:22:34.546Z,-2.10
2022-12-05T12:25:33.815Z,-2.20
2022-12-05T12:28:05.585Z,-2.20
2022-12-05T12:31:00.810Z,-2.10
2022-12-05T12:33:52.335Z,-2.10
2022-12-05T12:36:25.417Z,-2.10
2022-12-05T12:39:22.656Z,-2.20
2022-12-05T12:42:21.881Z,-2.10
2022-12-05T12:45:09.255Z,-2.20
2022-12-05T12:47:40.230Z,-2.20
2022-12-05T12:50:22.199Z,-2.20
2022-12-05T12:52:55.066Z,-2.30
2022-12-05T12:55:35.195Z,-2.30
2022-12-05T12:58:28.183Z,-2.20
2022-12-05T13:01:21.661Z,-2.30
2022-12-05T13:04:02.896Z,-2.30
2022-12-05T13:06:43.115Z,-2.30
2022-12-05T13:09:22.552Z,-2.40
2022-12-05T13:11:52.290Z,-2.40
2022-12-05T13:14:24.438Z,-2.40
2022-12-05T13:16:54.557Z,-2.50
2022-12-05T13:19:38.052Z,-2.50
2022-12-05T13:22:07.300Z,-2.50
2022-12-05T13:24:34.894Z,-2.50
2022-12-05T13:27:06.637Z,-2.50
2022-12-05T13:29:37.915Z,-2.50
2022-12-05T13:32:06.096Z,-2.50
2022-12-05T13:34:36.165Z,-2.50
2022-12-05T13:37:31.276Z,-2.50
2022-12-05T13:40:22.845Z,-2.50
2022-12-05T13:43:00.858Z,-2.50
2022-12-05T13:45:28.509Z,-2.50
2022-12-05T13:48:01.768Z,-2.50
2022-12-05T13:50:41.442Z,-2.50
2022-12-05T13:53:26.161Z,-2.50
2022-12-05T13:56:16.062Z,-2.60
2022-12-05T13:58:59.222Z,-2.60
2022-12-05T14:01:26.350Z,-2.60
2022-12-05T14:03:59.996Z,-2.60
2022-12-05T14:06:38.856Z,-2.60
2022-12-05T14:09:17.747Z,-2.60
2022-12-05T14:12:22.976Z,-2.60
2022-12-05T14:15:03.871Z,-2.60
2022-12-05T14:17:43.247Z,-2.60
2022-12-05T14:20:22.497Z,-2.60
2022-12-05T14:23:22.514Z,-2.60
2022-12-05T14:26:15.110Z,-2.70
2022-12-05T14:28:54.029Z,-2.70
2022-12-05T14:31:49.499Z,-2.70
2022-12-05T14:34:31.797Z,-2.70
2022-12-05T14:37:06.818Z,-2.70
2022-12-05T14:39:50.389Z,-2.80
2022-12-05T14:42:29.513Z,-2.80
2022-12-05T14:44:59.830Z,-2.80
2022-12-05T14:47:33.053Z,-2.80
2022-12-05T14:50:33.622Z,-2.90
2022-12-05T14:53:15.824Z,-2.90
2022-12-05T14:55:49.003Z,-2.90
2022-12-05T14:58:40.515Z,-2.90
2022-12-05T15:01:30.205Z,-2.80
2022-12-05T15:04:17.548Z,-2.90
2022-12-05T15:06:56.465Z,-2.90
2022-12-05T15:10:02.650Z,-2.90
2022-12-05T15:12:48.872Z,-2.90
2022-12-05T15:15:24.152Z,-2.90
2022-12-05T15:17:57.697Z,-3.00
2022-12-05T15:20:40.509Z,-3.00
2022-12-05T15:23:38.048Z,-3.00
2022-12-05T15:29:33.128Z,-3.00
2022-12-05T15:32:03.231Z,-3.10
2022-12-05T15:34:58.448Z,-3.20
2022-12-05T15:37:34.839Z,-3.20
2022-12-05T15:40:11.076Z,-3.20
2022-12-05T15:42:52.469Z,-3.20
2022-12-05T15:45:28.137Z,-3.30
2022-12-05T15:47:59.583Z,-3.30
2022-12-05T15:50:49.493Z,-3.30
2022-12-05T15:53:38.750Z,-3.30
2022-12-05T15:56:22.520Z,-3.30
2022-12-05T15:58:55.344Z,-3.40
2022-12-05T16:01:24.471Z,-3.30
2022-12-05T16:03:57.322Z,-3.30
2022-12-05T16:06:28.562Z,-3.30
2022-12-05T16:08:57.156Z,-3.30
2022-12-05T16:11:24.450Z,-3.30
2022-12-05T16:13:57.065Z,-3.30
2022-12-05T16:16:28.447Z,-3.40
2022-12-05T16:18:58.702Z,-3.40
2022-12-05T16:21:39.460Z,-3.40
2022-12-05T16:24:07.146Z,-3.40
2022-12-05T16:26:38.727Z,-3.40
2022-12-05T16:29:05.798Z,-3.40
2022-12-05T16:31:36.137Z,-3.40
2022-12-05T16:34:08.503Z,-3.40
2022-12-05T16:36:36.640Z,-3.40
2022-12-05T16:39:19.025Z,-3.50
2022-12-05T16:41:47.054Z,-3.50
2022-12-05T16:44:45.629Z,-3.50
2022-12-05T16:47:24.199Z,-3.50
2022-12-05T16:49:51.586Z,-3.50
2022-12-05T16:52:18.817Z,-3.50
2022-12-05T16:54:48.316Z,-3.40
2022-12-05T16:57:16.703Z,-3.40
2022-12-05T16:59:45.623Z,-3.50
2022-12-05T17:04:49.988Z,-3.40
2022-12-05T17:07:16.985Z,-3.40
2022-12-05T17:09:43.923Z,-3.50
2022-12-05T17:12:19.417Z,-3.40
2022-12-05T17:14:47.265Z,-3.40
2022-12-05T17:17:16.049Z,-3.40
2022-12-05T17:19:43.265Z,-3.40
2022-12-05T17:22:12.515Z,-3.40
2022-12-05T17:24:39.400Z,-3.40
2022-12-05T17:27:10.846Z,-3.40
2022-12-05T17:29:38.227Z,-3.40
2022-12-05T17:32:05.479Z,-3.40
2022-12-05T17:34:32.420Z,-3.40
2022-12-05T17:37:00.335Z,-3.40
2022-12-05T17:39:28.758Z,-3.40
2022-12-05T17:41:57.336Z,-3.40
2022-12-05T17:44:24.544Z,-3.40
2022-12-05T17:46:51.653Z,-3.40
2022-12-05T17:49:18.866Z,-3.40
2022-12-05T17:52:20.144Z,-3.40
2022-12-05T17:54:33.409Z,-3.40
2022-12-05T17:57:00.338Z,-3.40
2022-12-05T17:59:27.312Z,-3.40
2022-12-05T18:01:54.262Z,-3.40
2022-12-05T18:04:23.458Z,-3.40
2022-12-05T18:06:51.249Z,-3.40
2022-12-05T18:09:18.433Z,-3.40
2022-12-05T18:11:45.409Z,-3.40
2022-12-05T18:14:12.456Z,-3.40
2022-12-05T18:16:39.448Z,-3.40
2022-12-05T18:19:08.284Z,-3.40
2022-12-05T18:21:35.724Z,-3.40
2022-12-05T18:24:02.647Z,-3.40
2022-12-05T18:26:29.604Z,-3.40
2022-12-05T18:28:57.501Z,-3.40
2022-12-05T18:31:24.715Z,-3.40
2022-12-05T18:33:51.774Z,-3.40
2022-12-05T18:36:21.198Z,-3.40
2022-12-05T18:38:53.283Z,-3.50
2022-12-05T18:41:23.353Z,-3.50
2022-12-05T18:43:50.799Z,-3.50
2022-12-05T18:46:18.264Z,-3.50
2022-12-05T18:48:47.809Z,-3.40
2022-12-05T18:51:22.598Z,-3.40
2022-12-05T18:53:54.351Z,-3.40
2022-12-05T18:56:25.130Z,-3.40
2022-12-05T18:58:57.700Z,-3.50
2022-12-05T19:01:25.848Z,-3.40
2022-12-05T19:03:53.027Z,-3.40
2022-12-05T19:06:22.400Z,-3.40
2022-12-05T19:08:49.763Z,-3.40
2022-12-05T19:11:19.129Z,-3.40
2022-12-05T19:13:47.598Z,-3.50
2022-12-05T19:16:18.673Z,-3.50
2022-12-05T20:26:14.451Z,-3.50
2022-12-05T20:28:41.877Z,-3.40
2022-12-05T20:31:12.914Z,-3.50
2022-12-05T20:33:40.633Z,-3.50
2022-12-05T20:36:19.460Z,-3.50
2022-12-05T20:38:47.230Z,-3.50
2022-12-05T20:41:17.399Z,-3.50
2022-12-05T20:43:45.812Z,-3.50
2022-12-05T20:46:15.739Z,-3.60
2022-12-05T20:48:43.783Z,-3.50
2022-12-05T20:51:16.232Z,-3.50
2022-12-05T20:53:44.645Z,-3.50
2022-12-05T20:56:17.538Z,-3.50
2022-12-05T20:58:47.296Z,-3.50
2022-12-05T21:01:15.727Z,-3.50
2022-12-05T21:03:45.509Z,-3.50
2022-12-05T21:06:18.655Z,-3.50
2022-12-05T21:08:46.051Z,-3.40
2022-12-05T21:11:13.943Z,-3.50
2022-12-05T21:13:41.694Z,-3.50
2022-12-05T21:16:11.951Z,-3.50
2022-12-05T21:18:39.706Z,-3.50
2022-12-05T21:21:09.517Z,-3.50
2022-12-05T21:23:39.777Z,-3.50
2022-12-05T21:26:10.059Z,-3.50
2022-12-05T21:28:37.270Z,-3.50
2022-12-05T21:31:25.894Z,-3.50
2022-12-05T21:33:55.928Z,-3.40
2022-12-05T21:36:24.580Z,-3.50
2022-12-05T21:38:55.906Z,-3.50
2022-12-05T21:41:24.680Z,-3.50
2022-12-05T21:43:55.004Z,-3.50
2022-12-05T21:46:23.340Z,-3.50
2022-12-05T21:48:50.591Z,-3.50
2022-12-05T21:51:18.118Z,-3.50
2022-12-05T21:53:45.064Z,-3.60
2022-12-05T21:56:17.584Z,-3.50
2022-12-05T21:58:46.674Z,-3.50
2022-12-05T22:01:27.276Z,-3.50
2022-12-05T22:03:59.222Z,-3.50
2022-12-05T22:06:26.362Z,-3.50
2022-12-05T22:08:54.848Z,-3.60
2022-12-05T22:11:23.581Z,-3.50
2022-12-05T22:13:50.905Z,-3.50
2022-12-05T22:16:18.731Z,-3.60
2022-12-05T22:18:46.529Z,-3.60
2022-12-05T22:21:15.466Z,-3.50
2022-12-05T22:23:42.484Z,-3.50
2022-12-05T22:26:14.945Z,-3.60
2022-12-05T22:28:42.026Z,-3.50
2022-12-05T22:31:12.204Z,-3.60
2022-12-05T22:33:39.770Z,-3.60
2022-12-05T22:36:09.869Z,-3.60
2022-12-05T22:38:39.298Z,-3.60
2022-12-05T22:41:09.739Z,-3.50
2022-12-05T22:43:38.031Z,-3.60
2022-12-05T22:46:13.691Z,-3.60
2022-12-05T22:48:41.182Z,-3.60
2022-12-05T22:51:09.129Z,-3.60
2022-12-05T22:53:37.027Z,-3.60
2022-12-05T22:56:10.205Z,-3.70
2022-12-05T22:58:38.080Z,-3.60
2022-12-05T23:01:18.437Z,-3.60
2022-12-05T23:03:46.757Z,-3.60
2022-12-05T23:06:15.818Z,-3.60
2022-12-05T23:08:45.186Z,-3.60
2022-12-05T23:11:12.253Z,-3.60
2022-12-05T23:13:39.819Z,-3.60
2022-12-05T23:16:12.260Z,-3.60
2022-12-05T23:18:48.315Z,-3.60
2022-12-05T23:21:27.345Z,-3.60
2022-12-05T23:23:55.944Z,-3.60
2022-12-05T23:26:25.515Z,-3.60
2022-12-05T23:28:53.309Z,-3.60
2022-12-05T23:31:20.782Z,-3.50
2022-12-05T23:33:51.270Z,-3.50
2022-12-05T23:36:18.871Z,-3.50
2022-12-05T23:38:45.885Z,-3.50
2022-12-05T23:41:14.583Z,-3.50
2022-12-05T23:43:42.944Z,-3.50
2022-12-05T23:46:11.373Z,-3.50
2022-12-05T23:51:20.264Z,-3.60
2022-12-05T23:56:33.673Z,-3.60
2022-12-05T23:59:02.318Z,-3.50
